createdAt,value
2023-05-05T00:01:49.954Z,633.75
2023-05-05T00:04:19.924Z,615.38
2023-05-05T00:06:49.824Z,639.25
2023-05-05T00:09:18.240Z,614.97
2023-05-05T00:11:46.738Z,636.35
2023-05-05T00:14:15.462Z,626.58
2023-05-05T00:16:44.326Z,614.22
2023-05-05T00:19:13.289Z,636.25
2023-05-05T00:21:41.701Z,616.10
2023-05-05T00:24:11.598Z,644.33
2023-05-05T00:26:40.090Z,625.63
2023-05-05T00:29:08.513Z,611.00
2023-05-05T00:31:37.749Z,626.60
2023-05-05T00:34:06.404Z,624.67
2023-05-05T00:36:34.808Z,643.53
2023-05-05T00:39:03.226Z,663.88
2023-05-05T00:41:32.878Z,631.10
2023-05-05T00:44:01.305Z,617.40
2023-05-05T00:46:31.576Z,625.53
2023-05-05T00:49:00.591Z,623.67
2023-05-05T00:51:30.199Z,634.63
2023-05-05T00:53:58.561Z,616.58
2023-05-05T00:56:27.410Z,601.60
2023-05-05T00:58:58.369Z,602.53
2023-05-05T01:01:27.190Z,652.70
2023-05-05T01:03:55.819Z,665.17
2023-05-05T01:06:36.694Z,651.90
2023-05-05T01:09:10.651Z,591.33
2023-05-05T01:11:45.958Z,606.55
2023-05-05T01:14:18.391Z,614.22
2023-05-05T01:16:56.474Z,620.42
2023-05-05T01:19:52.437Z,595.08
2023-05-05T01:22:25.633Z,614.80
2023-05-05T01:25:39.114Z,619.78
2023-05-05T01:28:20.698Z,617.83
2023-05-05T01:31:10.698Z,610.95
2023-05-05T01:33:45.337Z,660.55
2023-05-05T01:36:22.520Z,633.15
2023-05-05T01:38:56.512Z,651.78
2023-05-05T01:41:27.212Z,604.05
2023-05-05T01:43:56.379Z,662.60
2023-05-05T01:46:26.307Z,610.75
2023-05-05T01:48:56.742Z,647.55
2023-05-05T01:51:26.549Z,605.30
2023-05-05T01:53:56.111Z,623.72
2023-05-05T01:56:25.101Z,617.85
2023-05-05T01:58:54.111Z,607.88
2023-05-05T02:01:25.526Z,631.22
2023-05-05T02:03:56.925Z,631.60
2023-05-05T02:06:26.797Z,616.78
2023-05-05T02:08:58.249Z,648.28
2023-05-05T02:11:27.460Z,636.42
2023-05-05T02:13:56.543Z,640.17
2023-05-05T02:16:25.442Z,651.30
2023-05-05T02:18:55.643Z,661.38
2023-05-05T02:21:24.077Z,634.55
2023-05-05T02:23:52.534Z,647.80
2023-05-05T02:26:22.539Z,640.38
2023-05-05T02:28:54.297Z,621.95
2023-05-05T02:31:23.940Z,635.53
2023-05-05T02:33:52.729Z,631.20
2023-05-05T02:36:24.587Z,643.63
2023-05-05T02:38:55.905Z,629.55
2023-05-05T02:41:24.720Z,688.35
2023-05-05T02:43:53.143Z,639.72
2023-05-05T02:46:21.668Z,646.10
2023-05-05T02:48:50.259Z,663.17
2023-05-05T02:51:18.676Z,659.25
2023-05-05T02:53:48.669Z,668.92
2023-05-05T02:56:22.686Z,691.38
2023-05-05T02:58:54.142Z,678.90
2023-05-05T03:01:30.246Z,681.05
2023-05-05T03:04:05.209Z,680.63
2023-05-05T03:06:38.232Z,661.15
2023-05-05T03:09:11.768Z,706.80
2023-05-05T03:11:49.068Z,650.10
2023-05-05T03:14:21.093Z,697.88
2023-05-05T03:16:50.531Z,654.42
2023-05-05T03:19:20.209Z,704.17
2023-05-05T03:21:49.525Z,676.35
2023-05-05T03:24:21.161Z,693.42
2023-05-05T03:26:50.745Z,697.47
2023-05-05T03:29:25.415Z,709.28
2023-05-05T03:32:01.635Z,688.00
2023-05-05T03:34:35.846Z,671.03
2023-05-05T03:37:04.310Z,696.13
2023-05-05T03:39:34.130Z,686.65
2023-05-05T03:42:15.113Z,676.63
2023-05-05T03:44:43.962Z,721.70
2023-05-05T03:47:20.665Z,740.42
2023-05-05T03:50:01.655Z,706.45
2023-05-05T03:52:30.296Z,690.42
2023-05-05T03:55:00.411Z,725.97
2023-05-05T03:57:28.768Z,717.58
2023-05-05T03:59:57.398Z,746.55
2023-05-05T04:02:25.870Z,732.83
2023-05-05T04:04:54.321Z,727.88
2023-05-05T04:07:23.680Z,709.40
2023-05-05T04:09:52.172Z,704.38
2023-05-05T04:12:21.933Z,741.63
2023-05-05T04:14:50.311Z,715.30
2023-05-05T04:17:18.674Z,690.55
2023-05-05T04:19:47.078Z,670.67
2023-05-05T04:22:18.308Z,696.88
2023-05-05T04:24:47.324Z,692.35
2023-05-05T04:27:15.835Z,715.38
2023-05-05T04:29:45.939Z,682.55
2023-05-05T04:32:16.184Z,677.53
2023-05-05T04:34:44.798Z,717.33
2023-05-05T04:37:14.052Z,764.22
2023-05-05T04:39:44.000Z,693.47
2023-05-05T04:42:12.541Z,679.95
2023-05-05T04:44:41.525Z,655.92
2023-05-05T04:47:13.888Z,706.53
2023-05-05T04:49:45.389Z,750.20
2023-05-05T04:52:14.208Z,744.35
2023-05-05T04:54:58.976Z,791.88
2023-05-05T04:57:34.774Z,727.70
2023-05-05T05:00:06.716Z,723.20
2023-05-05T05:02:37.657Z,779.97
2023-05-05T05:05:09.378Z,743.80
2023-05-05T05:07:37.824Z,705.38
2023-05-05T05:10:07.410Z,704.05
2023-05-05T05:12:36.195Z,670.35
2023-05-05T05:15:05.064Z,680.08
2023-05-05T05:17:34.893Z,660.22
2023-05-05T05:20:05.075Z,826.08
2023-05-05T05:22:35.142Z,738.53
2023-05-05T05:25:03.624Z,686.50
2023-05-05T05:27:32.041Z,688.33
2023-05-05T05:30:00.508Z,709.00
2023-05-05T05:32:28.963Z,721.78
2023-05-05T05:34:58.738Z,805.40
2023-05-05T05:37:31.033Z,766.72
2023-05-05T05:39:59.421Z,716.85
2023-05-05T05:42:27.828Z,764.85
2023-05-05T05:44:56.986Z,626.05
2023-05-05T05:47:25.777Z,660.97
2023-05-05T05:49:54.236Z,634.75
2023-05-05T05:52:24.121Z,616.60
2023-05-05T05:54:52.703Z,617.67
2023-05-05T05:57:22.683Z,654.47
2023-05-05T05:59:51.077Z,675.58
2023-05-05T06:02:20.982Z,692.85
2023-05-05T06:04:49.413Z,739.85
2023-05-05T06:07:17.794Z,723.13
2023-05-05T06:09:47.712Z,711.88
2023-05-05T06:12:16.366Z,776.25
2023-05-05T06:14:44.860Z,797.38
2023-05-05T06:17:13.351Z,803.78
2023-05-05T06:19:42.150Z,790.38
2023-05-05T06:22:10.538Z,866.10
2023-05-05T06:24:38.997Z,762.42
2023-05-05T06:27:09.447Z,765.47
2023-05-05T06:29:37.970Z,754.95
2023-05-05T06:32:08.359Z,766.42
2023-05-05T06:34:36.832Z,725.05
2023-05-05T06:37:05.303Z,736.78
2023-05-05T06:39:33.862Z,719.63
2023-05-05T06:42:04.229Z,839.50
2023-05-05T06:44:34.624Z,760.90
2023-05-05T06:47:03.202Z,739.67
2023-05-05T06:49:31.788Z,725.75
2023-05-05T06:52:00.238Z,737.22
2023-05-05T06:54:28.727Z,710.63
2023-05-05T06:56:59.292Z,756.15
2023-05-05T06:59:28.113Z,786.65
2023-05-05T07:01:58.188Z,771.22
2023-05-05T07:04:26.803Z,804.83
2023-05-05T07:06:55.663Z,753.47
2023-05-05T07:09:24.325Z,798.70
2023-05-05T07:11:53.253Z,783.15
2023-05-05T07:14:24.401Z,750.45
2023-05-05T07:16:53.584Z,769.58
2023-05-05T07:19:23.713Z,764.10
2023-05-05T07:21:52.651Z,774.97
2023-05-05T07:24:21.092Z,768.47
2023-05-05T07:26:49.732Z,744.83
2023-05-05T07:29:18.237Z,783.33
2023-05-05T07:31:46.738Z,774.30
2023-05-05T07:34:15.240Z,776.15
2023-05-05T07:36:45.649Z,759.40
2023-05-05T07:39:16.105Z,773.45
2023-05-05T07:41:44.744Z,808.30
2023-05-05T07:44:13.280Z,769.22
2023-05-05T07:46:41.803Z,754.63
2023-05-05T07:49:10.444Z,743.72
2023-05-05T07:51:38.917Z,811.65
2023-05-05T07:54:08.984Z,722.03
2023-05-05T07:56:37.667Z,719.20
2023-05-05T07:59:06.195Z,701.20
2023-05-05T08:01:35.297Z,709.53
2023-05-05T08:04:04.235Z,783.30
2023-05-05T08:06:32.924Z,707.30
2023-05-05T08:09:01.928Z,757.30
2023-05-05T08:11:32.021Z,746.45
2023-05-05T08:14:00.709Z,728.85
2023-05-05T08:16:29.624Z,730.38
2023-05-05T08:18:58.228Z,737.80
2023-05-05T08:21:27.750Z,738.80
2023-05-05T08:23:56.217Z,744.30
2023-05-05T08:26:24.768Z,740.55
2023-05-05T08:29:03.550Z,760.45
2023-05-05T08:31:35.471Z,738.97
2023-05-05T08:34:04.388Z,738.55
2023-05-05T08:36:33.020Z,768.13
2023-05-05T08:39:01.873Z,742.35
2023-05-05T08:41:31.144Z,725.72
2023-05-05T08:44:01.677Z,730.53
2023-05-05T08:46:31.466Z,712.58
2023-05-05T08:49:00.959Z,709.33
2023-05-05T08:51:31.598Z,728.05
2023-05-05T08:54:04.589Z,728.58
2023-05-05T08:56:36.409Z,724.72
2023-05-05T08:59:08.061Z,739.58
2023-05-05T09:01:37.565Z,807.13
2023-05-05T09:04:07.821Z,777.15
2023-05-05T09:06:37.371Z,751.00
2023-05-05T09:09:05.967Z,732.25
2023-05-05T09:11:36.291Z,733.90
2023-05-05T09:14:06.592Z,736.45
2023-05-05T09:16:35.628Z,764.53
2023-05-05T09:19:04.984Z,771.40
2023-05-05T09:21:33.915Z,795.83
2023-05-05T09:24:09.779Z,778.30
2023-05-05T09:26:39.796Z,785.80
2023-05-05T09:29:09.834Z,781.58
2023-05-05T09:31:38.807Z,774.63
2023-05-05T09:34:18.173Z,773.78
2023-05-05T09:36:48.983Z,816.03
2023-05-05T09:39:19.441Z,789.95
2023-05-05T09:41:47.986Z,767.97
2023-05-05T09:44:17.773Z,806.80
2023-05-05T09:46:52.078Z,773.83
2023-05-05T09:49:23.468Z,795.65
2023-05-05T09:51:52.901Z,788.50
2023-05-05T09:54:26.158Z,767.42
2023-05-05T09:56:55.005Z,734.83
2023-05-05T09:59:25.721Z,752.45
2023-05-05T10:01:54.297Z,642.00
2023-05-05T10:04:28.095Z,686.65
2023-05-05T10:06:57.406Z,672.10
2023-05-05T10:09:26.741Z,665.35
2023-05-05T10:11:55.686Z,669.10
2023-05-05T10:14:26.846Z,679.33
2023-05-05T10:16:57.027Z,676.22
2023-05-05T10:19:26.220Z,786.63
2023-05-05T10:21:55.816Z,729.85
2023-05-05T10:24:31.194Z,721.28
2023-05-05T10:27:00.737Z,730.55
2023-05-05T10:29:45.869Z,774.13
2023-05-05T10:32:50.180Z,735.42
2023-05-05T10:35:13.068Z,733.30
2023-05-05T10:37:45.023Z,738.08
2023-05-05T10:40:14.783Z,756.25
2023-05-05T10:42:43.526Z,774.50
2023-05-05T10:45:13.482Z,781.72
2023-05-05T10:47:42.548Z,760.33
2023-05-05T10:50:16.386Z,757.53
2023-05-05T10:52:48.447Z,747.83
2023-05-05T10:55:19.647Z,812.50
2023-05-05T10:57:48.318Z,768.40
2023-05-05T11:00:52.750Z,769.22
2023-05-05T11:03:22.515Z,752.13
2023-05-05T11:06:12.471Z,766.92
2023-05-05T11:08:42.695Z,761.63
2023-05-05T11:11:16.947Z,780.25
2023-05-05T11:13:45.584Z,789.60
2023-05-05T11:16:48.012Z,796.35
2023-05-05T11:19:48.245Z,771.35
2023-05-05T11:22:17.593Z,751.83
2023-05-05T11:24:47.125Z,738.45
2023-05-05T11:27:15.715Z,727.92
2023-05-05T11:30:09.581Z,710.08
2023-05-05T11:32:39.706Z,705.03
2023-05-05T11:35:08.482Z,692.50
2023-05-05T11:37:36.863Z,687.42
2023-05-05T11:40:12.536Z,701.35
2023-05-05T11:42:40.952Z,684.55
2023-05-05T11:45:22.632Z,704.90
2023-05-05T11:47:52.488Z,691.97
2023-05-05T11:50:23.271Z,687.03
2023-05-05T11:52:51.929Z,688.70
2023-05-05T11:55:24.100Z,700.15
2023-05-05T11:57:52.644Z,692.83
2023-05-05T12:00:21.728Z,790.30
2023-05-05T12:02:58.914Z,693.63
2023-05-05T12:05:27.466Z,688.55
2023-05-05T12:07:59.500Z,702.38
2023-05-05T12:10:28.208Z,687.83
2023-05-05T12:12:56.739Z,680.15
2023-05-05T12:15:32.020Z,701.97
2023-05-05T12:18:03.326Z,675.92
2023-05-05T12:20:33.257Z,677.15
2023-05-05T12:23:03.071Z,706.70
2023-05-05T12:25:38.957Z,679.28
2023-05-05T12:28:08.494Z,710.13
2023-05-05T12:30:37.379Z,695.72
2023-05-05T12:33:08.630Z,693.67
2023-05-05T12:35:37.824Z,698.28
2023-05-05T12:38:06.374Z,689.95
2023-05-05T12:40:48.139Z,724.28
2023-05-05T12:43:27.187Z,715.65
2023-05-05T12:46:09.833Z,714.85
2023-05-05T12:48:41.453Z,700.95
2023-05-05T12:51:20.545Z,688.60
2023-05-05T12:53:50.027Z,702.05
2023-05-05T12:56:35.458Z,693.97
2023-05-05T12:59:04.899Z,714.33
2023-05-05T13:01:34.058Z,695.35
2023-05-05T13:04:12.108Z,686.03
2023-05-05T13:06:41.233Z,735.38
2023-05-05T13:09:11.091Z,679.38
2023-05-05T13:11:40.257Z,692.17
2023-05-05T13:14:09.149Z,696.40
2023-05-05T13:16:37.569Z,691.25
2023-05-05T13:19:05.923Z,695.20
2023-05-05T13:21:35.669Z,656.40
2023-05-05T13:26:35.797Z,657.03
2023-05-05T13:29:04.225Z,643.78
2023-05-05T13:31:32.657Z,663.67
2023-05-05T13:34:00.990Z,727.28
2023-05-05T13:36:29.368Z,680.35
2023-05-05T13:38:59.318Z,711.33
2023-05-05T13:41:27.696Z,762.70
2023-05-05T13:43:56.442Z,703.35
2023-05-05T13:46:24.886Z,700.13
2023-05-05T13:48:56.617Z,801.28
2023-05-05T13:51:25.378Z,707.55
2023-05-05T13:53:53.945Z,706.83
2023-05-05T13:56:26.071Z,707.35
2023-05-05T13:58:54.503Z,717.35
2023-05-05T14:01:22.953Z,839.45
2023-05-05T14:03:51.539Z,726.42
2023-05-05T14:06:20.111Z,757.67
2023-05-05T14:08:48.634Z,759.75
2023-05-05T14:11:18.083Z,749.80
2023-05-05T14:13:48.058Z,754.72
2023-05-05T14:16:16.528Z,754.90
2023-05-05T14:18:45.081Z,757.22
2023-05-05T14:21:13.476Z,763.88
2023-05-05T14:23:41.946Z,767.45
2023-05-05T14:26:10.352Z,761.95
2023-05-05T14:28:38.731Z,780.83
2023-05-05T14:31:08.531Z,819.22
2023-05-05T14:33:37.235Z,770.72
2023-05-05T14:36:06.050Z,775.80
2023-05-05T14:38:34.464Z,789.72
2023-05-05T14:41:02.857Z,790.60
2023-05-05T14:43:31.299Z,786.92
2023-05-05T14:46:00.385Z,765.17
2023-05-05T14:48:30.338Z,760.05
2023-05-05T14:50:59.549Z,766.60
2023-05-05T14:53:27.907Z,803.65
2023-05-05T14:55:56.959Z,809.15
2023-05-05T14:58:25.389Z,792.42
2023-05-05T15:00:54.508Z,854.90
2023-05-05T15:03:22.991Z,772.97
2023-05-05T15:05:52.809Z,822.88
2023-05-05T15:08:22.026Z,761.03
2023-05-05T15:10:50.759Z,762.53
2023-05-05T15:13:19.405Z,767.22
2023-05-05T15:15:48.813Z,779.88
2023-05-05T15:18:17.293Z,761.17
2023-05-05T15:20:45.798Z,858.53
2023-05-05T15:23:16.072Z,745.28
2023-05-05T15:25:44.603Z,833.45
2023-05-05T15:28:12.947Z,752.38
2023-05-05T15:30:41.444Z,750.50
2023-05-05T15:33:09.848Z,749.22
2023-05-05T15:35:38.454Z,717.60
2023-05-05T15:38:06.836Z,730.83
2023-05-05T15:40:36.583Z,726.60
2023-05-05T15:43:04.939Z,753.47
2023-05-05T15:45:33.506Z,854.00
2023-05-05T15:48:01.954Z,723.38
2023-05-05T15:50:31.045Z,680.72
2023-05-05T15:52:59.687Z,676.53
2023-05-05T15:55:28.405Z,622.42
2023-05-05T15:57:58.128Z,600.58
2023-05-05T16:00:26.768Z,606.47
2023-05-05T16:02:55.241Z,630.28
2023-05-05T16:05:23.636Z,708.25
2023-05-05T16:07:53.581Z,613.58
2023-05-05T16:10:22.265Z,574.22
2023-05-05T16:12:52.077Z,628.35
2023-05-05T16:15:22.253Z,605.50
2023-05-05T16:17:50.868Z,615.65
2023-05-05T16:20:19.701Z,730.35
2023-05-05T16:22:48.084Z,625.22
2023-05-05T16:25:18.263Z,666.17
2023-05-05T16:27:46.655Z,707.00
2023-05-05T16:30:16.325Z,749.47
2023-05-05T16:32:47.248Z,655.50
2023-05-05T16:35:15.628Z,645.50
2023-05-05T16:37:44.134Z,664.53
2023-05-05T16:40:13.626Z,663.15
2023-05-05T16:42:44.341Z,780.50
2023-05-05T16:45:13.376Z,692.03
2023-05-05T16:47:42.021Z,761.10
2023-05-05T16:50:12.216Z,671.00
2023-05-05T16:52:40.587Z,673.53
2023-05-05T16:55:09.870Z,675.25
2023-05-05T16:57:38.359Z,715.65
2023-05-05T17:00:09.237Z,749.70
2023-05-05T17:02:37.660Z,687.42
2023-05-05T17:05:06.945Z,634.88
2023-05-05T17:07:37.081Z,672.75
2023-05-05T17:10:06.258Z,704.53
2023-05-05T17:12:34.661Z,694.30
2023-05-05T17:15:03.066Z,701.38
2023-05-05T17:17:31.500Z,686.67
2023-05-05T17:19:59.858Z,658.35
2023-05-05T17:22:59.725Z,665.67
2023-05-05T17:25:29.483Z,668.53
2023-05-05T17:27:57.834Z,663.80
2023-05-05T17:30:26.363Z,693.97
2023-05-05T17:32:54.825Z,679.45
2023-05-05T17:35:23.212Z,703.45
2023-05-05T17:37:51.779Z,681.58
2023-05-05T17:40:20.208Z,726.40
2023-05-05T17:42:49.899Z,683.22
2023-05-05T17:45:18.353Z,682.67
2023-05-05T17:47:46.820Z,696.05
2023-05-05T17:50:15.250Z,657.45
2023-05-05T17:52:44.994Z,725.67
2023-05-05T17:55:13.736Z,672.35
2023-05-05T17:57:42.104Z,674.83
2023-05-05T18:00:12.928Z,669.33
2023-05-05T18:02:41.539Z,687.85
2023-05-05T18:05:10.875Z,660.50
2023-05-05T18:07:39.591Z,664.95
2023-05-05T18:10:10.707Z,680.97
2023-05-05T18:12:39.282Z,681.80
2023-05-05T18:15:09.064Z,654.65
2023-05-05T18:17:39.479Z,681.33
2023-05-05T18:20:09.253Z,688.00
2023-05-05T18:22:37.727Z,692.92
2023-05-05T18:25:08.281Z,684.25
2023-05-05T18:27:37.383Z,687.97
2023-05-05T18:30:06.785Z,677.38
2023-05-05T18:32:38.294Z,675.08
2023-05-05T18:35:08.010Z,674.00
2023-05-05T18:37:37.020Z,640.15
2023-05-05T18:40:06.202Z,682.55
2023-05-05T18:42:34.708Z,718.75
2023-05-05T18:45:03.181Z,661.60
2023-05-05T18:47:31.649Z,683.90
2023-05-05T18:50:01.510Z,741.15
2023-05-05T18:52:30.689Z,636.72
2023-05-05T18:54:59.641Z,667.42
2023-05-05T18:57:29.268Z,659.65
2023-05-05T18:59:57.849Z,668.45
2023-05-05T19:02:26.500Z,665.90
2023-05-05T19:04:54.997Z,696.63
2023-05-05T19:07:35.117Z,690.05
2023-05-05T19:10:09.051Z,679.75
2023-05-05T19:12:46.230Z,694.15
2023-05-05T19:15:14.662Z,660.88
